sensor_id;sensor_type;location;lat;lon;timestamp;P1;durP1;ratioP1;P2;durP2;ratioP2
20336;SDS011;10326;53.660;10.200;2023-01-10T00:00:47;16.45;;;12.32;;
20336;SDS011;10326;53.660;10.200;2023-01-10T00:03:14;15.85;;;11.73;;
20336;SDS011;10326;53.660;10.200;2023-01-10T00:05:41;16.85;;;11.38;;
20336;SDS011;10326;53.660;10.200;2023-01-10T00:08:09;14.95;;;10.77;;
20336;SDS011;10326;53.660;10.200;2023-01-10T00:10:41;18.67;;;11.98;;
20336;SDS011;10326;53.660;10.200;2023-01-10T00:13:13;17.73;;;11.32;;
20336;SDS011;10326;53.660;10.200;2023-01-10T00:15:49;14.85;;;11.13;;
20336;SDS011;10326;53.660;10.200;2023-01-10T00:18:17;15.88;;;10.95;;
20336;SDS011;10326;53.660;10.200;2023-01-10T00:20:45;15.52;;;11.25;;
20336;SDS011;10326;53.660;10.200;2023-01-10T00:23:13;15.57;;;10.80;;
20336;SDS011;10326;53.660;10.200;2023-01-10T00:25:41;16.83;;;10.80;;
20336;SDS011;10326;53.660;10.200;2023-01-10T00:28:08;17.30;;;11.57;;
20336;SDS011;10326;53.660;10.200;2023-01-10T00:30:47;13.75;;;11.35;;
20336;SDS011;10326;53.660;10.200;2023-01-10T00:33:21;17.67;;;10.45;;
20336;SDS011;10326;53.660;10.200;2023-01-10T00:35:48;14.02;;;9.50;;
20336;SDS011;10326;53.660;10.200;2023-01-10T00:38:16;13.02;;;9.90;;
20336;SDS011;10326;53.660;10.200;2023-01-10T00:40:44;19.45;;;9.25;;
20336;SDS011;10326;53.660;10.200;2023-01-10T00:43:11;13.70;;;9.18;;
20336;SDS011;10326;53.660;10.200;2023-01-10T00:45:57;15.40;;;8.60;;
20336;SDS011;10326;53.660;10.200;2023-01-10T00:48:26;16.88;;;8.38;;
20336;SDS011;10326;53.660;10.200;2023-01-10T00:50:54;14.40;;;9.60;;
20336;SDS011;10326;53.660;10.200;2023-01-10T00:53:21;18.58;;;9.43;;
20336;SDS011;10326;53.660;10.200;2023-01-10T00:55:48;11.50;;;8.13;;
20336;SDS011;10326;53.660;10.200;2023-01-10T00:58:15;15.35;;;8.75;;
20336;SDS011;10326;53.660;10.200;2023-01-10T01:00:43;15.20;;;9.25;;
20336;SDS011;10326;53.660;10.200;2023-01-10T01:03:15;15.90;;;8.55;;
20336;SDS011;10326;53.660;10.200;2023-01-10T01:05:44;14.23;;;9.02;;
20336;SDS011;10326;53.660;10.200;2023-01-10T01:08:13;12.98;;;8.65;;
20336;SDS011;10326;53.660;10.200;2023-01-10T01:10:42;14.35;;;8.43;;
20336;SDS011;10326;53.660;10.200;2023-01-10T01:13:11;13.65;;;7.68;;
20336;SDS011;10326;53.660;10.200;2023-01-10T01:15:41;11.70;;;7.65;;
20336;SDS011;10326;53.660;10.200;2023-01-10T01:18:08;15.85;;;7.05;;
20336;SDS011;10326;53.660;10.200;2023-01-10T01:20:39;13.05;;;7.15;;
20336;SDS011;10326;53.660;10.200;2023-01-10T01:23:07;11.98;;;7.38;;
20336;SDS011;10326;53.660;10.200;2023-01-10T01:25:34;12.30;;;7.47;;
20336;SDS011;10326;53.660;10.200;2023-01-10T01:28:01;13.55;;;6.63;;
20336;SDS011;10326;53.660;10.200;2023-01-10T01:30:28;8.98;;;6.70;;
20336;SDS011;10326;53.660;10.200;2023-01-10T01:32:56;14.00;;;6.82;;
20336;SDS011;10326;53.660;10.200;2023-01-10T01:35:23;12.15;;;6.97;;
20336;SDS011;10326;53.660;10.200;2023-01-10T01:37:51;14.27;;;6.57;;
20336;SDS011;10326;53.660;10.200;2023-01-10T01:40:19;11.60;;;6.38;;
20336;SDS011;10326;53.660;10.200;2023-01-10T01:42:48;15.30;;;6.70;;
20336;SDS011;10326;53.660;10.200;2023-01-10T01:48:15;12.00;;;6.22;;
20336;SDS011;10326;53.660;10.200;2023-01-10T01:50:58;10.38;;;6.05;;
20336;SDS011;10326;53.660;10.200;2023-01-10T01:53:34;13.63;;;6.45;;
20336;SDS011;10326;53.660;10.200;2023-01-10T01:56:08;10.95;;;5.93;;
20336;SDS011;10326;53.660;10.200;2023-01-10T01:58:43;10.40;;;5.85;;
20336;SDS011;10326;53.660;10.200;2023-01-10T02:01:14;10.50;;;6.20;;
20336;SDS011;10326;53.660;10.200;2023-01-10T02:03:42;16.45;;;6.45;;
20336;SDS011;10326;53.660;10.200;2023-01-10T02:06:13;12.88;;;5.57;;
20336;SDS011;10326;53.660;10.200;2023-01-10T02:08:46;10.05;;;5.55;;
20336;SDS011;10326;53.660;10.200;2023-01-10T02:11:24;8.82;;;5.30;;
20336;SDS011;10326;53.660;10.200;2023-01-10T02:13:51;11.93;;;5.47;;
20336;SDS011;10326;53.660;10.200;2023-01-10T02:16:19;10.07;;;5.35;;
20336;SDS011;10326;53.660;10.200;2023-01-10T02:18:47;11.18;;;6.00;;
20336;SDS011;10326;53.660;10.200;2023-01-10T02:21:17;9.57;;;5.50;;
20336;SDS011;10326;53.660;10.200;2023-01-10T02:24:11;11.10;;;5.57;;
20336;SDS011;10326;53.660;10.200;2023-01-10T02:27:12;9.35;;;5.57;;
20336;SDS011;10326;53.660;10.200;2023-01-10T02:29:59;11.52;;;5.65;;
20336;SDS011;10326;53.660;10.200;2023-01-10T02:33:00;13.30;;;5.45;;
20336;SDS011;10326;53.660;10.200;2023-01-10T02:35:44;8.10;;;5.40;;
20336;SDS011;10326;53.660;10.200;2023-01-10T02:38:31;7.78;;;5.05;;
20336;SDS011;10326;53.660;10.200;2023-01-10T02:41:12;8.88;;;5.18;;
20336;SDS011;10326;53.660;10.200;2023-01-10T02:43:53;9.02;;;5.65;;
20336;SDS011;10326;53.660;10.200;2023-01-10T02:46:29;9.27;;;5.45;;
20336;SDS011;10326;53.660;10.200;2023-01-10T02:48:58;12.10;;;6.05;;
20336;SDS011;10326;53.660;10.200;2023-01-10T02:51:26;10.63;;;5.90;;
20336;SDS011;10326;53.660;10.200;2023-01-10T02:53:58;11.13;;;6.00;;
20336;SDS011;10326;53.660;10.200;2023-01-10T02:59:49;8.90;;;5.63;;
20336;SDS011;10326;53.660;10.200;2023-01-10T03:03:02;9.75;;;6.20;;
20336;SDS011;10326;53.660;10.200;2023-01-10T03:05:45;10.35;;;5.90;;
20336;SDS011;10326;53.660;10.200;2023-01-10T03:08:26;8.38;;;5.32;;
20336;SDS011;10326;53.660;10.200;2023-01-10T03:10:59;6.50;;;5.60;;
20336;SDS011;10326;53.660;10.200;2023-01-10T03:13:29;10.00;;;5.63;;
20336;SDS011;10326;53.660;10.200;2023-01-10T03:16:00;9.70;;;5.55;;
20336;SDS011;10326;53.660;10.200;2023-01-10T03:18:32;11.73;;;6.10;;
20336;SDS011;10326;53.660;10.200;2023-01-10T03:21:06;8.88;;;5.47;;
20336;SDS011;10326;53.660;10.200;2023-01-10T03:23:35;10.60;;;5.82;;
20336;SDS011;10326;53.660;10.200;2023-01-10T03:26:06;10.18;;;5.60;;
20336;SDS011;10326;53.660;10.200;2023-01-10T03:28:37;8.80;;;5.43;;
20336;SDS011;10326;53.660;10.200;2023-01-10T03:31:13;11.75;;;5.60;;
20336;SDS011;10326;53.660;10.200;2023-01-10T03:33:43;10.95;;;5.93;;
20336;SDS011;10326;53.660;10.200;2023-01-10T03:36:15;11.35;;;5.70;;
20336;SDS011;10326;53.660;10.200;2023-01-10T03:38:55;10.07;;;5.07;;
20336;SDS011;10326;53.660;10.200;2023-01-10T03:41:31;10.95;;;6.53;;
20336;SDS011;10326;53.660;10.200;2023-01-10T03:44:06;10.02;;;5.30;;
20336;SDS011;10326;53.660;10.200;2023-01-10T03:47:00;9.40;;;5.13;;
20336;SDS011;10326;53.660;10.200;2023-01-10T03:49:33;9.95;;;6.47;;
20336;SDS011;10326;53.660;10.200;2023-01-10T03:52:06;12.85;;;5.55;;
20336;SDS011;10326;53.660;10.200;2023-01-10T03:54:38;10.82;;;5.13;;
20336;SDS011;10326;53.660;10.200;2023-01-10T03:57:07;9.02;;;5.18;;
20336;SDS011;10326;53.660;10.200;2023-01-10T03:59:42;9.93;;;5.53;;
20336;SDS011;10326;53.660;10.200;2023-01-10T04:02:10;9.88;;;5.45;;
20336;SDS011;10326;53.660;10.200;2023-01-10T04:04:37;7.93;;;4.75;;
20336;SDS011;10326;53.660;10.200;2023-01-10T04:07:06;9.10;;;5.40;;
20336;SDS011;10326;53.660;10.200;2023-01-10T04:09:33;8.00;;;4.95;;
20336;SDS011;10326;53.660;10.200;2023-01-10T04:12:01;10.45;;;5.50;;
20336;SDS011;10326;53.660;10.200;2023-01-10T04:14:29;8.43;;;4.63;;
20336;SDS011;10326;53.660;10.200;2023-01-10T04:16:56;9.57;;;4.85;;
20336;SDS011;10326;53.660;10.200;2023-01-10T04:19:24;9.13;;;4.47;;
20336;SDS011;10326;53.660;10.200;2023-01-10T04:21:51;9.43;;;4.90;;
20336;SDS011;10326;53.660;10.200;2023-01-10T04:24:20;10.07;;;4.43;;
20336;SDS011;10326;53.660;10.200;2023-01-10T04:26:47;10.50;;;4.75;;
20336;SDS011;10326;53.660;10.200;2023-01-10T04:29:15;8.75;;;4.53;;
20336;SDS011;10326;53.660;10.200;2023-01-10T04:31:42;9.18;;;4.20;;
20336;SDS011;10326;53.660;10.200;2023-01-10T04:34:09;8.35;;;3.83;;
20336;SDS011;10326;53.660;10.200;2023-01-10T04:36:37;9.20;;;4.55;;
20336;SDS011;10326;53.660;10.200;2023-01-10T04:39:04;8.43;;;4.65;;
20336;SDS011;10326;53.660;10.200;2023-01-10T04:41:32;8.15;;;4.65;;
20336;SDS011;10326;53.660;10.200;2023-01-10T04:43:59;8.68;;;4.70;;
20336;SDS011;10326;53.660;10.200;2023-01-10T04:46:26;8.30;;;4.80;;
20336;SDS011;10326;53.660;10.200;2023-01-10T04:48:54;9.75;;;4.50;;
20336;SDS011;10326;53.660;10.200;2023-01-10T04:51:22;10.07;;;5.18;;
20336;SDS011;10326;53.660;10.200;2023-01-10T04:53:50;10.32;;;5.18;;
20336;SDS011;10326;53.660;10.200;2023-01-10T04:56:17;10.57;;;5.05;;
20336;SDS011;10326;53.660;10.200;2023-01-10T04:58:48;8.68;;;4.43;;
20336;SDS011;10326;53.660;10.200;2023-01-10T05:01:16;11.32;;;5.45;;
20336;SDS011;10326;53.660;10.200;2023-01-10T05:03:48;7.38;;;4.95;;
20336;SDS011;10326;53.660;10.200;2023-01-10T05:06:16;10.98;;;5.10;;
20336;SDS011;10326;53.660;10.200;2023-01-10T05:08:43;8.80;;;4.63;;
20336;SDS011;10326;53.660;10.200;2023-01-10T05:11:11;9.05;;;4.68;;
20336;SDS011;10326;53.660;10.200;2023-01-10T05:13:39;9.20;;;4.45;;
20336;SDS011;10326;53.660;10.200;2023-01-10T05:16:08;7.20;;;4.43;;
20336;SDS011;10326;53.660;10.200;2023-01-10T05:18:36;13.07;;;4.53;;
20336;SDS011;10326;53.660;10.200;2023-01-10T05:21:04;10.27;;;4.85;;
20336;SDS011;10326;53.660;10.200;2023-01-10T05:23:33;9.35;;;4.88;;
20336;SDS011;10326;53.660;10.200;2023-01-10T05:26:04;12.82;;;4.75;;
20336;SDS011;10326;53.660;10.200;2023-01-10T05:28:32;10.27;;;4.13;;
20336;SDS011;10326;53.660;10.200;2023-01-10T05:30:59;8.02;;;4.55;;
20336;SDS011;10326;53.660;10.200;2023-01-10T05:33:28;9.88;;;4.55;;
20336;SDS011;10326;53.660;10.200;2023-01-10T05:35:55;10.23;;;4.10;;
20336;SDS011;10326;53.660;10.200;2023-01-10T05:38:22;8.05;;;4.40;;
20336;SDS011;10326;53.660;10.200;2023-01-10T05:40:53;10.18;;;4.25;;
20336;SDS011;10326;53.660;10.200;2023-01-10T05:43:21;7.43;;;3.67;;
20336;SDS011;10326;53.660;10.200;2023-01-10T05:45:48;10.38;;;4.13;;
20336;SDS011;10326;53.660;10.200;2023-01-10T05:48:16;7.72;;;3.85;;
20336;SDS011;10326;53.660;10.200;2023-01-10T05:50:45;11.88;;;4.05;;
20336;SDS011;10326;53.660;10.200;2023-01-10T05:53:15;6.60;;;3.05;;
20336;SDS011;10326;53.660;10.200;2023-01-10T05:55:42;10.27;;;3.75;;
20336;SDS011;10326;53.660;10.200;2023-01-10T05:58:10;10.63;;;4.32;;
20336;SDS011;10326;53.660;10.200;2023-01-10T06:00:37;10.73;;;3.97;;
20336;SDS011;10326;53.660;10.200;2023-01-10T06:03:05;9.80;;;4.38;;
20336;SDS011;10326;53.660;10.200;2023-01-10T06:05:32;5.45;;;3.38;;
20336;SDS011;10326;53.660;10.200;2023-01-10T06:08:01;10.38;;;3.58;;
20336;SDS011;10326;53.660;10.200;2023-01-10T06:10:28;11.00;;;3.33;;
20336;SDS011;10326;53.660;10.200;2023-01-10T06:12:55;9.40;;;3.40;;
20336;SDS011;10326;53.660;10.200;2023-01-10T06:15:22;8.77;;;3.22;;
20336;SDS011;10326;53.660;10.200;2023-01-10T06:17:49;8.98;;;4.10;;
20336;SDS011;10326;53.660;10.200;2023-01-10T06:20:16;8.25;;;3.72;;
20336;SDS011;10326;53.660;10.200;2023-01-10T06:22:43;6.50;;;3.63;;
20336;SDS011;10326;53.660;10.200;2023-01-10T06:25:12;8.73;;;3.60;;
20336;SDS011;10326;53.660;10.200;2023-01-10T06:27:40;10.02;;;4.15;;
20336;SDS011;10326;53.660;10.200;2023-01-10T06:30:09;12.00;;;6.85;;
20336;SDS011;10326;53.660;10.200;2023-01-10T06:32:38;11.27;;;4.57;;
20336;SDS011;10326;53.660;10.200;2023-01-10T06:35:06;7.97;;;3.75;;
20336;SDS011;10326;53.660;10.200;2023-01-10T06:37:34;13.10;;;3.78;;
20336;SDS011;10326;53.660;10.200;2023-01-10T06:40:02;7.70;;;3.35;;
20336;SDS011;10326;53.660;10.200;2023-01-10T06:42:32;9.07;;;3.60;;
20336;SDS011;10326;53.660;10.200;2023-01-10T06:44:59;9.43;;;3.70;;
20336;SDS011;10326;53.660;10.200;2023-01-10T06:47:26;7.00;;;3.45;;
20336;SDS011;10326;53.660;10.200;2023-01-10T06:49:53;9.15;;;3.67;;
20336;SDS011;10326;53.660;10.200;2023-01-10T06:52:20;10.10;;;3.38;;
20336;SDS011;10326;53.660;10.200;2023-01-10T06:54:47;8.07;;;3.53;;
20336;SDS011;10326;53.660;10.200;2023-01-10T06:57:17;10.07;;;3.65;;
20336;SDS011;10326;53.660;10.200;2023-01-10T06:59:45;8.40;;;3.90;;
20336;SDS011;10326;53.660;10.200;2023-01-10T07:02:12;11.20;;;3.90;;
20336;SDS011;10326;53.660;10.200;2023-01-10T07:04:40;12.48;;;4.30;;
20336;SDS011;10326;53.660;10.200;2023-01-10T07:07:07;10.43;;;3.75;;
20336;SDS011;10326;53.660;10.200;2023-01-10T07:09:34;12.43;;;3.42;;
20336;SDS011;10326;53.660;10.200;2023-01-10T07:12:01;11.48;;;3.97;;
20336;SDS011;10326;53.660;10.200;2023-01-10T07:14:29;6.65;;;3.15;;
20336;SDS011;10326;53.660;10.200;2023-01-10T07:16:57;8.80;;;3.63;;
20336;SDS011;10326;53.660;10.200;2023-01-10T07:19:25;10.45;;;3.95;;
20336;SDS011;10326;53.660;10.200;2023-01-10T07:21:52;10.15;;;3.05;;
20336;SDS011;10326;53.660;10.200;2023-01-10T07:24:19;8.23;;;3.40;;
20336;SDS011;10326;53.660;10.200;2023-01-10T07:26:47;7.65;;;2.92;;
20336;SDS011;10326;53.660;10.200;2023-01-10T07:29:14;11.95;;;3.70;;
20336;SDS011;10326;53.660;10.200;2023-01-10T07:31:41;13.43;;;3.55;;
20336;SDS011;10326;53.660;10.200;2023-01-10T07:34:09;9.88;;;3.10;;
20336;SDS011;10326;53.660;10.200;2023-01-10T07:36:38;7.82;;;3.10;;
20336;SDS011;10326;53.660;10.200;2023-01-10T07:39:05;6.88;;;3.05;;
20336;SDS011;10326;53.660;10.200;2023-01-10T07:41:32;8.70;;;3.35;;
20336;SDS011;10326;53.660;10.200;2023-01-10T07:44:01;9.82;;;3.47;;
20336;SDS011;10326;53.660;10.200;2023-01-10T07:46:28;8.93;;;3.38;;
20336;SDS011;10326;53.660;10.200;2023-01-10T07:48:55;8.10;;;3.10;;
20336;SDS011;10326;53.660;10.200;2023-01-10T07:51:24;10.95;;;3.30;;
20336;SDS011;10326;53.660;10.200;2023-01-10T07:53:51;12.98;;;3.55;;
20336;SDS011;10326;53.660;10.200;2023-01-10T07:56:18;11.20;;;4.18;;
20336;SDS011;10326;53.660;10.200;2023-01-10T07:58:45;10.20;;;3.47;;
20336;SDS011;10326;53.660;10.200;2023-01-10T08:01:12;10.70;;;3.83;;
20336;SDS011;10326;53.660;10.200;2023-01-10T08:03:39;11.65;;;3.83;;
20336;SDS011;10326;53.660;10.200;2023-01-10T08:06:07;7.82;;;3.70;;
20336;SDS011;10326;53.660;10.200;2023-01-10T08:08:37;10.52;;;4.25;;
20336;SDS011;10326;53.660;10.200;2023-01-10T08:11:05;13.95;;;4.28;;
20336;SDS011;10326;53.660;10.200;2023-01-10T08:13:32;11.07;;;3.40;;
20336;SDS011;10326;53.660;10.200;2023-01-10T08:16:03;9.30;;;4.05;;
20336;SDS011;10326;53.660;10.200;2023-01-10T08:18:31;14.13;;;4.55;;
20336;SDS011;10326;53.660;10.200;2023-01-10T08:20:58;8.75;;;4.38;;
20336;SDS011;10326;53.660;10.200;2023-01-10T08:23:26;6.35;;;3.65;;
20336;SDS011;10326;53.660;10.200;2023-01-10T08:25:56;10.38;;;4.32;;
20336;SDS011;10326;53.660;10.200;2023-01-10T08:28:24;9.68;;;4.10;;
20336;SDS011;10326;53.660;10.200;2023-01-10T08:30:51;9.23;;;4.28;;
20336;SDS011;10326;53.660;10.200;2023-01-10T08:33:19;11.75;;;4.40;;
20336;SDS011;10326;53.660;10.200;2023-01-10T08:35:47;13.38;;;4.80;;
20336;SDS011;10326;53.660;10.200;2023-01-10T08:38:15;11.68;;;4.60;;
20336;SDS011;10326;53.660;10.200;2023-01-10T08:40:42;9.63;;;5.18;;
20336;SDS011;10326;53.660;10.200;2023-01-10T08:43:11;13.65;;;5.10;;
20336;SDS011;10326;53.660;10.200;2023-01-10T08:45:39;11.15;;;4.60;;
20336;SDS011;10326;53.660;10.200;2023-01-10T08:48:06;12.30;;;5.03;;
20336;SDS011;10326;53.660;10.200;2023-01-10T08:50:35;14.63;;;4.45;;
20336;SDS011;10326;53.660;10.200;2023-01-10T08:53:02;10.80;;;4.47;;
20336;SDS011;10326;53.660;10.200;2023-01-10T08:55:30;9.98;;;4.85;;
20336;SDS011;10326;53.660;10.200;2023-01-10T08:57:59;14.80;;;4.80;;
20336;SDS011;10326;53.660;10.200;2023-01-10T09:00:28;14.65;;;5.05;;
20336;SDS011;10326;53.660;10.200;2023-01-10T09:02:56;13.02;;;5.15;;
20336;SDS011;10326;53.660;10.200;2023-01-10T09:05:23;12.00;;;5.65;;
20336;SDS011;10326;53.660;10.200;2023-01-10T09:07:51;11.30;;;5.90;;
20336;SDS011;10326;53.660;10.200;2023-01-10T09:10:19;13.85;;;6.13;;
20336;SDS011;10326;53.660;10.200;2023-01-10T09:12:46;10.85;;;6.28;;
20336;SDS011;10326;53.660;10.200;2023-01-10T09:15:24;11.48;;;5.60;;
20336;SDS011;10326;53.660;10.200;2023-01-10T09:17:55;13.88;;;6.13;;
20336;SDS011;10326;53.660;10.200;2023-01-10T09:20:24;11.45;;;7.18;;
20336;SDS011;10326;53.660;10.200;2023-01-10T09:22:55;12.80;;;6.40;;
20336;SDS011;10326;53.660;10.200;2023-01-10T09:25:22;10.10;;;6.65;;
20336;SDS011;10326;53.660;10.200;2023-01-10T09:27:54;12.00;;;7.32;;
20336;SDS011;10326;53.660;10.200;2023-01-10T09:30:23;12.82;;;6.85;;
20336;SDS011;10326;53.660;10.200;2023-01-10T09:32:54;14.27;;;8.90;;
20336;SDS011;10326;53.660;10.200;2023-01-10T09:35:23;12.35;;;8.00;;
20336;SDS011;10326;53.660;10.200;2023-01-10T09:37:52;14.82;;;7.85;;
20336;SDS011;10326;53.660;10.200;2023-01-10T09:40:23;14.80;;;8.18;;
20336;SDS011;10326;53.660;10.200;2023-01-10T09:43:02;17.48;;;8.57;;
20336;SDS011;10326;53.660;10.200;2023-01-10T09:45:37;12.48;;;8.43;;
20336;SDS011;10326;53.660;10.200;2023-01-10T09:48:27;13.30;;;8.70;;
20336;SDS011;10326;53.660;10.200;2023-01-10T09:51:09;17.20;;;9.65;;
20336;SDS011;10326;53.660;10.200;2023-01-10T09:53:58;14.95;;;8.73;;
20336;SDS011;10326;53.660;10.200;2023-01-10T09:56:30;15.40;;;9.80;;
20336;SDS011;10326;53.660;10.200;2023-01-10T09:58:59;16.48;;;9.48;;
20336;SDS011;10326;53.660;10.200;2023-01-10T10:01:28;17.27;;;9.40;;
20336;SDS011;10326;53.660;10.200;2023-01-10T10:04:04;13.13;;;9.27;;
20336;SDS011;10326;53.660;10.200;2023-01-10T10:06:44;15.20;;;9.18;;
20336;SDS011;10326;53.660;10.200;2023-01-10T10:09:14;14.55;;;9.05;;
20336;SDS011;10326;53.660;10.200;2023-01-10T10:12:00;13.50;;;8.68;;
20336;SDS011;10326;53.660;10.200;2023-01-10T10:14:46;15.57;;;8.57;;
20336;SDS011;10326;53.660;10.200;2023-01-10T10:17:33;13.75;;;8.57;;
20336;SDS011;10326;53.660;10.200;2023-01-10T10:20:13;11.57;;;8.35;;
20336;SDS011;10326;53.660;10.200;2023-01-10T10:23:08;13.52;;;8.63;;
20336;SDS011;10326;53.660;10.200;2023-01-10T10:25:54;12.65;;;7.20;;
20336;SDS011;10326;53.660;10.200;2023-01-10T10:31:25;11.75;;;6.60;;
20336;SDS011;10326;53.660;10.200;2023-01-10T10:34:09;12.57;;;7.65;;
20336;SDS011;10326;53.660;10.200;2023-01-10T10:36:48;12.57;;;7.65;;
20336;SDS011;10326;53.660;10.200;2023-01-10T10:39:20;11.48;;;6.75;;
20336;SDS011;10326;53.660;10.200;2023-01-10T10:41:53;13.30;;;7.10;;
20336;SDS011;10326;53.660;10.200;2023-01-10T10:44:33;16.27;;;7.60;;
20336;SDS011;10326;53.660;10.200;2023-01-10T10:47:08;17.88;;;8.07;;
20336;SDS011;10326;53.660;10.200;2023-01-10T10:49:42;14.07;;;7.97;;
20336;SDS011;10326;53.660;10.200;2023-01-10T10:52:18;14.63;;;7.78;;
20336;SDS011;10326;53.660;10.200;2023-01-10T10:54:50;17.27;;;8.50;;
20336;SDS011;10326;53.660;10.200;2023-01-10T10:57:19;15.00;;;8.05;;
20336;SDS011;10326;53.660;10.200;2023-01-10T10:59:49;12.80;;;8.07;;
20336;SDS011;10326;53.660;10.200;2023-01-10T11:02:21;13.80;;;8.23;;
20336;SDS011;10326;53.660;10.200;2023-01-10T11:04:53;13.77;;;8.02;;
20336;SDS011;10326;53.660;10.200;2023-01-10T11:07:25;15.82;;;9.00;;
20336;SDS011;10326;53.660;10.200;2023-01-10T11:09:58;15.43;;;8.48;;
20336;SDS011;10326;53.660;10.200;2023-01-10T11:12:39;14.50;;;8.68;;
20336;SDS011;10326;53.660;10.200;2023-01-10T11:15:14;16.70;;;10.63;;
20336;SDS011;10326;53.660;10.200;2023-01-10T11:18:06;14.75;;;9.43;;
20336;SDS011;10326;53.660;10.200;2023-01-10T11:20:42;12.98;;;9.43;;
20336;SDS011;10326;53.660;10.200;2023-01-10T11:23:28;14.10;;;9.38;;
20336;SDS011;10326;53.660;10.200;2023-01-10T11:26:08;15.85;;;10.38;;
20336;SDS011;10326;53.660;10.200;2023-01-10T11:28:49;13.27;;;9.23;;
20336;SDS011;10326;53.660;10.200;2023-01-10T11:31:24;14.45;;;9.85;;
20336;SDS011;10326;53.660;10.200;2023-01-10T11:33:53;13.25;;;8.98;;
20336;SDS011;10326;53.660;10.200;2023-01-10T11:36:21;11.95;;;8.68;;
20336;SDS011;10326;53.660;10.200;2023-01-10T11:38:57;13.02;;;8.55;;
20336;SDS011;10326;53.660;10.200;2023-01-10T11:41:27;13.32;;;9.13;;
20336;SDS011;10326;53.660;10.200;2023-01-10T11:46:42;15.25;;;8.77;;
20336;SDS011;10326;53.660;10.200;2023-01-10T11:49:11;14.25;;;8.48;;
20336;SDS011;10326;53.660;10.200;2023-01-10T11:51:44;16.60;;;9.35;;
20336;SDS011;10326;53.660;10.200;2023-01-10T11:54:16;13.82;;;8.85;;
20336;SDS011;10326;53.660;10.200;2023-01-10T11:56:51;15.18;;;9.25;;
20336;SDS011;10326;53.660;10.200;2023-01-10T11:59:22;16.10;;;9.40;;
20336;SDS011;10326;53.660;10.200;2023-01-10T12:01:54;15.00;;;9.88;;
20336;SDS011;10326;53.660;10.200;2023-01-10T12:04:26;13.73;;;9.13;;
20336;SDS011;10326;53.660;10.200;2023-01-10T12:06:58;15.80;;;8.98;;
20336;SDS011;10326;53.660;10.200;2023-01-10T12:09:34;13.23;;;8.98;;
20336;SDS011;10326;53.660;10.200;2023-01-10T12:12:05;13.65;;;9.35;;
20336;SDS011;10326;53.660;10.200;2023-01-10T12:14:43;15.10;;;9.20;;
20336;SDS011;10326;53.660;10.200;2023-01-10T12:17:12;16.80;;;9.10;;
20336;SDS011;10326;53.660;10.200;2023-01-10T12:19:48;16.77;;;9.95;;
20336;SDS011;10326;53.660;10.200;2023-01-10T12:22:17;17.45;;;9.73;;
20336;SDS011;10326;53.660;10.200;2023-01-10T12:24:49;16.52;;;9.50;;
20336;SDS011;10326;53.660;10.200;2023-01-10T12:27:18;15.73;;;9.05;;
20336;SDS011;10326;53.660;10.200;2023-01-10T12:29:50;15.98;;;8.43;;
20336;SDS011;10326;53.660;10.200;2023-01-10T12:32:27;12.98;;;9.18;;
20336;SDS011;10326;53.660;10.200;2023-01-10T12:35:00;14.80;;;9.07;;
20336;SDS011;10326;53.660;10.200;2023-01-10T12:37:33;14.27;;;9.05;;
20336;SDS011;10326;53.660;10.200;2023-01-10T12:40:11;16.63;;;8.82;;
20336;SDS011;10326;53.660;10.200;2023-01-10T12:42:46;15.68;;;8.90;;
20336;SDS011;10326;53.660;10.200;2023-01-10T12:45:38;16.50;;;8.90;;
20336;SDS011;10326;53.660;10.200;2023-01-10T12:48:12;15.70;;;8.30;;
20336;SDS011;10326;53.660;10.200;2023-01-10T12:50:48;16.73;;;8.77;;
20336;SDS011;10326;53.660;10.200;2023-01-10T12:53:23;16.85;;;8.93;;
20336;SDS011;10326;53.660;10.200;2023-01-10T12:56:00;19.75;;;9.88;;
20336;SDS011;10326;53.660;10.200;2023-01-10T12:58:36;15.48;;;8.10;;
20336;SDS011;10326;53.660;10.200;2023-01-10T13:01:09;14.90;;;8.77;;
20336;SDS011;10326;53.660;10.200;2023-01-10T13:03:38;12.95;;;8.18;;
20336;SDS011;10326;53.660;10.200;2023-01-10T13:06:06;11.93;;;8.27;;
20336;SDS011;10326;53.660;10.200;2023-01-10T13:08:38;15.18;;;7.93;;
20336;SDS011;10326;53.660;10.200;2023-01-10T13:11:09;11.13;;;8.18;;
20336;SDS011;10326;53.660;10.200;2023-01-10T13:13:41;13.65;;;7.78;;
20336;SDS011;10326;53.660;10.200;2023-01-10T13:16:17;16.20;;;9.00;;
20336;SDS011;10326;53.660;10.200;2023-01-10T13:18:57;12.95;;;8.75;;
20336;SDS011;10326;53.660;10.200;2023-01-10T13:21:26;13.82;;;8.93;;
20336;SDS011;10326;53.660;10.200;2023-01-10T13:23:56;13.75;;;9.00;;
20336;SDS011;10326;53.660;10.200;2023-01-10T13:26:27;13.63;;;8.90;;
20336;SDS011;10326;53.660;10.200;2023-01-10T13:29:15;14.27;;;8.95;;
20336;SDS011;10326;53.660;10.200;2023-01-10T13:31:46;14.45;;;8.82;;
20336;SDS011;10326;53.660;10.200;2023-01-10T13:34:21;15.23;;;9.23;;
20336;SDS011;10326;53.660;10.200;2023-01-10T13:36:52;13.43;;;8.15;;
20336;SDS011;10326;53.660;10.200;2023-01-10T13:39:23;16.25;;;9.48;;
20336;SDS011;10326;53.660;10.200;2023-01-10T13:42:10;16.02;;;9.35;;
20336;SDS011;10326;53.660;10.200;2023-01-10T13:45:14;14.20;;;9.68;;
20336;SDS011;10326;53.660;10.200;2023-01-10T13:53:43;13.27;;;9.07;;
20336;SDS011;10326;53.660;10.200;2023-01-10T13:56:30;11.52;;;9.25;;
20336;SDS011;10326;53.660;10.200;2023-01-10T13:59:01;11.73;;;9.38;;
20336;SDS011;10326;53.660;10.200;2023-01-10T14:01:52;14.77;;;9.80;;
20336;SDS011;10326;53.660;10.200;2023-01-10T14:04:44;14.07;;;9.05;;
20336;SDS011;10326;53.660;10.200;2023-01-10T14:07:18;13.60;;;9.43;;
20336;SDS011;10326;53.660;10.200;2023-01-10T14:09:50;16.73;;;10.02;;
20336;SDS011;10326;53.660;10.200;2023-01-10T14:12:26;13.30;;;9.13;;
20336;SDS011;10326;53.660;10.200;2023-01-10T14:15:02;14.60;;;9.48;;
20336;SDS011;10326;53.660;10.200;2023-01-10T14:17:34;16.55;;;9.80;;
20336;SDS011;10326;53.660;10.200;2023-01-10T14:20:04;17.25;;;9.93;;
20336;SDS011;10326;53.660;10.200;2023-01-10T14:22:44;16.63;;;9.13;;
20336;SDS011;10326;53.660;10.200;2023-01-10T14:25:25;15.13;;;9.52;;
20336;SDS011;10326;53.660;10.200;2023-01-10T14:27:54;16.40;;;8.82;;
20336;SDS011;10326;53.660;10.200;2023-01-10T14:30:26;14.32;;;8.45;;
20336;SDS011;10326;53.660;10.200;2023-01-10T14:32:58;14.15;;;8.02;;
20336;SDS011;10326;53.660;10.200;2023-01-10T14:35:32;14.15;;;8.40;;
20336;SDS011;10326;53.660;10.200;2023-01-10T14:38:05;13.15;;;7.60;;
20336;SDS011;10326;53.660;10.200;2023-01-10T14:40:42;14.18;;;7.00;;
20336;SDS011;10326;53.660;10.200;2023-01-10T14:43:12;12.00;;;7.38;;
20336;SDS011;10326;53.660;10.200;2023-01-10T14:45:46;9.75;;;6.53;;
20336;SDS011;10326;53.660;10.200;2023-01-10T14:48:23;11.43;;;6.80;;
20336;SDS011;10326;53.660;10.200;2023-01-10T14:51:08;11.88;;;6.43;;
20336;SDS011;10326;53.660;10.200;2023-01-10T14:53:42;12.50;;;6.55;;
20336;SDS011;10326;53.660;10.200;2023-01-10T14:56:17;12.00;;;6.68;;
20336;SDS011;10326;53.660;10.200;2023-01-10T14:58:46;9.30;;;6.68;;
20336;SDS011;10326;53.660;10.200;2023-01-10T15:01:15;11.23;;;6.43;;
20336;SDS011;10326;53.660;10.200;2023-01-10T15:03:49;12.15;;;6.88;;
20336;SDS011;10326;53.660;10.200;2023-01-10T15:06:17;12.43;;;6.35;;
20336;SDS011;10326;53.660;10.200;2023-01-10T15:08:44;12.50;;;7.00;;